createdAt,value
2023-02-16T00:00:26.911Z,33.49
2023-02-16T00:02:53.240Z,35.46
2023-02-16T00:05:19.537Z,37.22
2023-02-16T00:07:45.827Z,38.54
2023-02-16T00:10:12.142Z,38.75
2023-02-16T00:12:38.433Z,37.31
2023-02-16T00:15:04.726Z,37.89
2023-02-16T00:17:31.038Z,35.31
2023-02-16T00:19:57.329Z,34.45
2023-02-16T00:22:23.618Z,37.23
2023-02-16T00:24:49.917Z,32.45
2023-02-16T00:27:16.213Z,29.02
2023-02-16T00:29:45.947Z,25.84
2023-02-16T00:32:12.528Z,21.62
2023-02-16T00:34:38.891Z,18.48
2023-02-16T00:37:05.178Z,16.99
2023-02-16T00:39:31.491Z,17.82
2023-02-16T00:41:57.788Z,20.28
2023-02-16T00:44:24.079Z,29.72
2023-02-16T00:46:50.449Z,30.12
2023-02-16T00:49:16.741Z,28.29
2023-02-16T00:51:43.057Z,29.64
2023-02-16T00:54:09.370Z,29.25
2023-02-16T00:56:35.661Z,28.85
2023-02-16T00:59:01.972Z,30.86
2023-02-16T01:01:31.073Z,31.45
2023-02-16T01:03:57.411Z,32.93
2023-02-16T01:06:23.727Z,36.17
2023-02-16T01:08:50.049Z,34.39
2023-02-16T01:11:16.336Z,30.04
2023-02-16T01:13:42.636Z,29.04
2023-02-16T01:16:08.980Z,27.70
2023-02-16T01:18:35.284Z,26.41
2023-02-16T01:21:01.691Z,27.44
2023-02-16T01:23:28.109Z,31.78
2023-02-16T01:25:54.390Z,28.81
2023-02-16T01:28:20.673Z,27.97
2023-02-16T01:30:47.037Z,26.66
2023-02-16T01:33:13.376Z,24.20
2023-02-16T01:35:39.658Z,26.00
2023-02-16T01:38:06.005Z,30.44
2023-02-16T01:40:32.314Z,30.41
2023-02-16T01:42:58.601Z,37.23
2023-02-16T01:45:24.927Z,37.85
2023-02-16T01:47:51.215Z,37.19
2023-02-16T01:50:17.516Z,35.88
2023-02-16T01:52:43.861Z,34.08
2023-02-16T01:55:10.163Z,32.07
2023-02-16T01:57:36.450Z,35.34
2023-02-16T02:00:02.764Z,35.20
2023-02-16T02:02:29.111Z,33.88
2023-02-16T02:04:55.446Z,37.36
2023-02-16T02:07:21.779Z,38.39
2023-02-16T02:09:48.077Z,36.93
2023-02-16T02:12:14.412Z,37.59
2023-02-16T02:14:40.727Z,37.49
2023-02-16T02:17:07.027Z,38.26
2023-02-16T02:19:33.334Z,37.75
2023-02-16T02:21:59.642Z,38.22
2023-02-16T02:24:25.936Z,38.85
2023-02-16T02:26:52.221Z,36.55
2023-02-16T02:29:18.516Z,36.55
2023-02-16T02:31:44.961Z,37.11
2023-02-16T02:34:11.275Z,38.62
2023-02-16T02:36:37.579Z,37.21
2023-02-16T02:39:03.889Z,35.65
2023-02-16T02:41:30.172Z,34.68
2023-02-16T02:43:56.495Z,36.16
2023-02-16T02:46:22.792Z,34.90
2023-02-16T02:48:49.122Z,33.11
2023-02-16T02:51:15.448Z,31.64
2023-02-16T02:53:41.751Z,31.40
2023-02-16T02:56:08.049Z,31.62
2023-02-16T02:58:34.412Z,34.05
2023-02-16T03:01:00.744Z,36.79
2023-02-16T03:03:27.062Z,36.28
2023-02-16T03:05:53.371Z,36.23
2023-02-16T03:08:19.656Z,36.71
2023-02-16T03:10:45.941Z,36.77
2023-02-16T03:13:12.250Z,37.69
2023-02-16T03:15:38.547Z,37.65
2023-02-16T03:18:04.839Z,39.14
2023-02-16T03:20:31.160Z,37.75
2023-02-16T03:22:57.456Z,37.83
2023-02-16T03:25:23.738Z,37.62
2023-02-16T03:27:50.061Z,37.20
2023-02-16T03:30:16.537Z,35.72
2023-02-16T03:32:43.052Z,35.38
2023-02-16T03:35:09.395Z,36.07
2023-02-16T03:37:36.944Z,34.60
2023-02-16T03:40:03.246Z,33.54
2023-02-16T03:42:29.544Z,34.30
2023-02-16T03:44:55.847Z,35.24
2023-02-16T03:47:22.133Z,34.64
2023-02-16T03:49:48.445Z,34.89
2023-02-16T03:52:14.746Z,37.12
2023-02-16T03:54:41.031Z,38.86
2023-02-16T03:57:07.348Z,38.18
2023-02-16T03:59:33.629Z,38.24
2023-02-16T04:01:59.967Z,36.47
2023-02-16T04:04:26.517Z,35.77
2023-02-16T04:06:52.876Z,36.17
2023-02-16T04:09:19.172Z,41.47
2023-02-16T04:11:45.488Z,41.94
2023-02-16T04:14:11.787Z,44.37
2023-02-16T04:16:38.111Z,44.08
2023-02-16T04:19:04.430Z,42.72
2023-02-16T04:21:30.713Z,43.37
2023-02-16T04:23:57.000Z,43.83
2023-02-16T04:26:23.323Z,44.16
2023-02-16T04:28:49.615Z,45.41
2023-02-16T04:31:15.985Z,45.57
2023-02-16T04:33:42.341Z,45.72
2023-02-16T04:36:08.637Z,45.51
2023-02-16T04:38:34.929Z,44.43
2023-02-16T04:41:01.474Z,45.30
2023-02-16T04:43:27.868Z,45.02
2023-02-16T04:45:54.339Z,48.72
2023-02-16T04:48:20.722Z,47.40
2023-02-16T04:50:47.014Z,49.39
2023-02-16T04:53:13.303Z,49.13
2023-02-16T04:55:39.624Z,48.46
2023-02-16T04:58:05.923Z,47.43
2023-02-16T05:00:32.802Z,46.69
2023-02-16T05:02:59.952Z,47.87
2023-02-16T05:05:26.254Z,49.06
2023-02-16T05:07:52.550Z,49.39
2023-02-16T05:10:18.901Z,49.74
2023-02-16T05:12:45.212Z,49.79
2023-02-16T05:15:11.497Z,48.78
2023-02-16T05:17:37.827Z,47.71
2023-02-16T05:20:04.131Z,46.36
2023-02-16T05:22:30.431Z,48.53
2023-02-16T05:24:56.747Z,48.26
2023-02-16T05:27:23.041Z,47.20
2023-02-16T05:29:49.322Z,45.41
2023-02-16T05:32:15.700Z,46.76
2023-02-16T05:34:42.036Z,48.16
2023-02-16T05:37:08.340Z,49.61
2023-02-16T05:39:34.648Z,50.51
2023-02-16T05:42:00.932Z,48.88
2023-02-16T05:44:27.218Z,49.23
2023-02-16T05:46:53.531Z,47.81
2023-02-16T05:49:19.807Z,47.89
2023-02-16T05:51:46.136Z,48.74
2023-02-16T05:54:12.457Z,49.02
2023-02-16T05:56:38.749Z,48.98
2023-02-16T05:59:05.041Z,47.04
2023-02-16T06:01:31.369Z,46.35
2023-02-16T06:03:57.735Z,47.12
2023-02-16T06:06:24.114Z,46.87
2023-02-16T06:08:50.433Z,46.31
2023-02-16T06:11:16.721Z,45.50
2023-02-16T06:13:43.021Z,44.87
2023-02-16T06:16:09.402Z,44.57
2023-02-16T06:18:35.727Z,43.61
2023-02-16T06:21:02.266Z,43.50
2023-02-16T06:23:28.714Z,42.52
2023-02-16T06:25:55.006Z,45.00
2023-02-16T06:28:21.287Z,46.41
2023-02-16T06:30:47.591Z,44.89
2023-02-16T06:33:13.900Z,45.01
2023-02-16T06:35:40.210Z,46.84
2023-02-16T06:38:06.518Z,48.68
2023-02-16T06:40:32.805Z,47.92
2023-02-16T06:42:59.094Z,45.45
2023-02-16T06:45:25.410Z,43.96
2023-02-16T06:47:51.698Z,42.21
2023-02-16T06:50:17.996Z,40.93
2023-02-16T06:52:44.337Z,39.09
2023-02-16T06:55:10.628Z,37.06
2023-02-16T06:57:36.932Z,35.03
2023-02-16T07:00:03.403Z,36.22
2023-02-16T07:02:29.696Z,39.98
2023-02-16T07:04:56.033Z,40.65
2023-02-16T07:07:22.397Z,42.82
2023-02-16T07:09:48.679Z,44.82
2023-02-16T07:12:14.966Z,44.80
2023-02-16T07:14:43.121Z,45.52
2023-02-16T07:17:10.340Z,46.07
2023-02-16T07:19:36.641Z,47.02
2023-02-16T07:22:02.994Z,46.58
2023-02-16T07:24:29.278Z,47.80
2023-02-16T07:26:55.573Z,47.48
2023-02-16T07:29:21.876Z,47.00
2023-02-16T07:31:48.284Z,45.80
2023-02-16T07:34:14.837Z,45.26
2023-02-16T07:36:41.141Z,44.61
2023-02-16T07:39:07.430Z,45.06
2023-02-16T07:41:33.713Z,46.13
2023-02-16T07:44:00.016Z,46.91
2023-02-16T07:46:26.315Z,55.71
2023-02-16T07:48:52.605Z,57.49
2023-02-16T07:51:18.914Z,50.06
2023-02-16T07:53:45.209Z,57.70
2023-02-16T07:56:11.501Z,54.46
2023-02-16T07:58:37.822Z,56.22
2023-02-16T08:01:04.300Z,55.97
2023-02-16T08:03:30.809Z,57.94
2023-02-16T08:05:57.120Z,54.04
2023-02-16T08:08:23.396Z,51.66
2023-02-16T08:10:49.702Z,51.44
2023-02-16T08:13:16.028Z,49.91
2023-02-16T08:15:42.329Z,51.92
2023-02-16T08:18:08.615Z,50.31
2023-02-16T08:20:53.926Z,49.81
2023-02-16T08:23:21.182Z,65.26
2023-02-16T08:25:47.523Z,56.96
2023-02-16T08:28:13.820Z,50.01
2023-02-16T08:30:40.107Z,48.23
2023-02-16T08:33:06.412Z,49.98
2023-02-16T08:35:32.726Z,49.13
2023-02-16T08:37:59.012Z,49.74
2023-02-16T08:40:25.326Z,48.76
2023-02-16T08:42:51.622Z,49.98
2023-02-16T08:45:17.915Z,53.23
2023-02-16T08:47:44.208Z,51.14
2023-02-16T08:50:10.503Z,54.74
2023-02-16T08:52:36.793Z,56.83
2023-02-16T08:55:03.105Z,54.03
2023-02-16T08:57:29.406Z,52.79
2023-02-16T08:59:55.713Z,50.62
2023-02-16T09:02:22.063Z,51.90
2023-02-16T09:04:48.887Z,54.37
2023-02-16T09:07:15.264Z,53.87
2023-02-16T09:09:42.774Z,52.97
2023-02-16T09:12:09.125Z,53.04
2023-02-16T09:14:35.422Z,53.30
2023-02-16T09:17:01.762Z,50.48
2023-02-16T09:19:28.098Z,52.87
2023-02-16T09:21:54.416Z,49.32
2023-02-16T09:24:20.723Z,51.16
2023-02-16T09:26:47.055Z,49.30
2023-02-16T09:29:13.542Z,48.66
2023-02-16T09:31:40.046Z,49.07
2023-02-16T09:34:06.382Z,50.36
2023-02-16T09:36:32.709Z,52.19
2023-02-16T09:38:59.028Z,52.83
2023-02-16T09:41:25.311Z,52.94
2023-02-16T09:43:51.597Z,52.62
2023-02-16T09:46:18.661Z,53.41
2023-02-16T09:48:45.829Z,52.53
2023-02-16T09:51:12.132Z,55.14
2023-02-16T09:53:38.441Z,55.21
2023-02-16T09:56:05.146Z,54.25
2023-02-16T09:58:31.587Z,53.97
2023-02-16T10:00:57.902Z,54.43
2023-02-16T10:03:24.188Z,54.54
2023-02-16T10:05:50.671Z,55.45
2023-02-16T10:08:17.087Z,53.43
2023-02-16T10:10:43.374Z,54.03
2023-02-16T10:13:09.671Z,52.48
2023-02-16T10:15:36.045Z,52.76
2023-02-16T10:18:02.407Z,51.81
2023-02-16T10:20:28.686Z,52.15
2023-02-16T10:22:54.997Z,52.63
2023-02-16T10:25:21.273Z,53.16
2023-02-16T10:27:47.566Z,52.08
2023-02-16T10:30:13.917Z,51.36
2023-02-16T10:32:43.955Z,50.39
2023-02-16T10:35:10.543Z,51.77
2023-02-16T10:37:36.910Z,49.55
2023-02-16T10:40:03.214Z,49.16
2023-02-16T10:42:29.492Z,49.15
2023-02-16T10:44:55.787Z,49.17
2023-02-16T10:47:22.299Z,50.43
2023-02-16T10:49:48.697Z,48.47
2023-02-16T10:52:15.006Z,48.18
2023-02-16T10:54:41.302Z,47.69
2023-02-16T10:57:07.610Z,46.30
2023-02-16T10:59:33.955Z,46.08
2023-02-16T11:02:00.251Z,45.39
2023-02-16T11:04:26.592Z,44.88
2023-02-16T11:06:52.925Z,44.74
2023-02-16T11:09:19.213Z,44.28
2023-02-16T11:11:45.508Z,46.13
2023-02-16T11:14:11.830Z,45.85
2023-02-16T11:16:38.126Z,44.91
2023-02-16T11:19:04.420Z,43.80
2023-02-16T11:21:30.738Z,39.88
2023-02-16T11:23:57.022Z,39.25
2023-02-16T11:26:23.329Z,38.66
2023-02-16T11:28:49.635Z,40.34
2023-02-16T11:31:16.017Z,40.88
2023-02-16T11:33:42.395Z,41.29
2023-02-16T11:36:08.702Z,41.17
2023-02-16T11:38:35.074Z,40.73
2023-02-16T11:41:01.371Z,40.74
2023-02-16T11:43:27.744Z,41.02
2023-02-16T11:45:54.031Z,40.75
2023-02-16T11:48:20.312Z,41.38
2023-02-16T11:50:46.637Z,40.38
2023-02-16T11:53:12.946Z,41.98
2023-02-16T11:55:39.266Z,40.56
2023-02-16T11:58:05.666Z,39.92
2023-02-16T12:00:31.973Z,42.63
2023-02-16T12:02:58.267Z,40.85
2023-02-16T12:05:24.617Z,38.45
2023-02-16T12:07:50.965Z,38.50
2023-02-16T12:10:17.272Z,39.58
2023-02-16T12:12:43.581Z,38.62
2023-02-16T12:15:09.873Z,36.83
2023-02-16T12:17:36.168Z,37.23
2023-02-16T12:20:02.498Z,36.81
2023-02-16T12:22:28.805Z,36.62
2023-02-16T12:24:55.085Z,37.22
2023-02-16T12:27:21.401Z,36.50
2023-02-16T12:29:47.688Z,35.76
2023-02-16T12:32:14.010Z,36.34
2023-02-16T12:34:40.327Z,36.71
2023-02-16T12:37:06.628Z,36.76
2023-02-16T12:39:32.943Z,36.57
2023-02-16T12:41:59.272Z,36.16
2023-02-16T12:44:25.566Z,35.77
2023-02-16T12:46:51.868Z,36.04
2023-02-16T12:49:18.217Z,35.20
2023-02-16T12:51:44.516Z,35.36
2023-02-16T12:54:10.860Z,35.69
2023-02-16T12:56:37.195Z,35.33
2023-02-16T12:59:03.500Z,34.35
2023-02-16T13:01:29.866Z,35.78
2023-02-16T13:03:56.207Z,35.77
2023-02-16T13:06:22.525Z,35.21
2023-02-16T13:08:48.828Z,35.21
2023-02-16T13:11:15.165Z,36.43
2023-02-16T13:13:41.481Z,36.70
2023-02-16T13:16:14.920Z,36.08
2023-02-16T13:18:50.287Z,36.34
2023-02-16T13:21:16.581Z,36.53
2023-02-16T13:23:42.874Z,36.65
2023-02-16T13:26:09.618Z,35.79
2023-02-16T13:28:36.293Z,36.01
2023-02-16T13:31:02.705Z,36.80
2023-02-16T13:33:29.104Z,38.06
2023-02-16T13:35:55.401Z,37.69
2023-02-16T13:38:21.709Z,38.30
2023-02-16T13:40:48.031Z,38.10
2023-02-16T13:43:14.358Z,38.80
2023-02-16T13:45:40.733Z,37.95
2023-02-16T13:48:07.233Z,38.79
2023-02-16T13:50:33.540Z,38.33
2023-02-16T13:52:59.823Z,38.05
2023-02-16T13:55:26.195Z,37.88
2023-02-16T13:57:53.991Z,36.47
2023-02-16T14:00:20.887Z,37.30
2023-02-16T14:02:47.197Z,36.54
2023-02-16T14:05:13.495Z,38.32
2023-02-16T14:07:39.795Z,38.38
2023-02-16T14:10:06.135Z,38.31
2023-02-16T14:12:32.433Z,36.82
2023-02-16T14:14:58.731Z,35.45
2023-02-16T14:17:25.051Z,35.73
2023-02-16T14:19:51.351Z,34.08
2023-02-16T14:22:17.669Z,34.62
2023-02-16T14:24:43.992Z,33.67
2023-02-16T14:27:10.291Z,33.64
2023-02-16T14:29:36.573Z,33.31
2023-02-16T14:32:02.908Z,32.21
2023-02-16T14:34:29.223Z,31.29
2023-02-16T14:36:55.514Z,31.59
2023-02-16T14:39:22.821Z,32.84
2023-02-16T14:41:49.225Z,32.38
2023-02-16T14:44:15.533Z,32.62
2023-02-16T14:46:41.900Z,33.84
2023-02-16T14:49:08.198Z,33.32
2023-02-16T14:51:34.486Z,33.59
2023-02-16T14:54:00.797Z,34.08
2023-02-16T14:56:27.464Z,32.16
2023-02-16T14:58:53.758Z,32.28
2023-02-16T15:01:20.103Z,31.51
2023-02-16T15:03:46.444Z,31.28
2023-02-16T15:06:12.802Z,31.22
2023-02-16T15:08:39.130Z,31.52
2023-02-16T15:11:05.430Z,31.95
2023-02-16T15:13:31.731Z,31.46
2023-02-16T15:15:58.085Z,31.54
2023-02-16T15:18:24.400Z,28.78
2023-02-16T15:20:50.716Z,28.58
2023-02-16T15:23:17.034Z,27.24
2023-02-16T15:25:43.345Z,27.30
2023-02-16T15:28:09.687Z,30.07
2023-02-16T15:30:35.995Z,28.75
2023-02-16T15:33:02.499Z,26.25
2023-02-16T15:35:28.806Z,30.74
2023-02-16T15:37:55.125Z,35.55
2023-02-16T15:40:26.233Z,34.22
2023-02-16T15:42:52.878Z,40.09
2023-02-16T15:45:19.261Z,35.14
2023-02-16T15:47:46.279Z,39.18
2023-02-16T15:50:12.604Z,40.51
2023-02-16T15:52:38.920Z,32.78
2023-02-16T15:55:05.210Z,30.50
2023-02-16T15:57:31.516Z,29.21
2023-02-16T15:59:57.831Z,26.78
2023-02-16T16:02:24.128Z,29.46
2023-02-16T16:04:50.442Z,28.58
2023-02-16T16:07:16.788Z,31.06
2023-02-16T16:09:43.104Z,34.00
2023-02-16T16:12:09.398Z,34.53
2023-02-16T16:14:35.718Z,33.79
2023-02-16T16:17:02.024Z,32.80
2023-02-16T16:19:28.320Z,32.19
2023-02-16T16:21:54.659Z,30.52
2023-02-16T16:24:20.952Z,28.86
2023-02-16T16:26:47.255Z,26.15
2023-02-16T16:29:13.567Z,25.70
2023-02-16T16:31:39.958Z,24.28
2023-02-16T16:34:06.331Z,23.74
2023-02-16T16:36:32.651Z,23.46
2023-02-16T16:38:58.957Z,24.15
2023-02-16T16:41:25.259Z,24.46
2023-02-16T16:43:51.750Z,23.46
2023-02-16T16:46:18.079Z,23.94
2023-02-16T16:48:44.362Z,23.27
2023-02-16T16:51:10.681Z,23.59
2023-02-16T16:53:36.978Z,23.21
2023-02-16T16:56:03.749Z,24.06
2023-02-16T16:58:30.214Z,24.06
2023-02-16T17:00:56.517Z,24.44
2023-02-16T17:03:22.801Z,25.63
2023-02-16T17:05:49.220Z,25.09
2023-02-16T17:08:15.524Z,25.32
2023-02-16T17:10:41.836Z,24.50
2023-02-16T17:13:08.186Z,23.04
2023-02-16T17:15:34.467Z,22.85
2023-02-16T17:18:00.755Z,22.27
2023-02-16T17:20:27.070Z,22.14
2023-02-16T17:22:53.366Z,22.26
2023-02-16T17:25:19.764Z,22.13
2023-02-16T17:27:46.082Z,22.06
2023-02-16T17:30:12.440Z,22.27
2023-02-16T17:32:38.779Z,23.49
2023-02-16T17:35:05.119Z,22.89
2023-02-16T17:37:31.415Z,23.43
2023-02-16T17:39:57.718Z,23.27
2023-02-16T17:42:24.041Z,23.16
2023-02-16T17:44:50.463Z,22.84
2023-02-16T17:47:16.765Z,24.25
2023-02-16T17:49:43.078Z,24.74
2023-02-16T17:52:09.350Z,24.97
2023-02-16T17:54:35.635Z,26.16
2023-02-16T17:57:01.943Z,26.48
2023-02-16T17:59:29.957Z,26.44
2023-02-16T18:01:56.731Z,26.78
2023-02-16T18:04:23.106Z,28.65
2023-02-16T18:06:49.483Z,30.14
2023-02-16T18:09:15.783Z,28.51
2023-02-16T18:11:42.090Z,27.54
2023-02-16T18:14:08.376Z,26.38
2023-02-16T18:16:34.686Z,24.23
2023-02-16T18:19:01.048Z,24.11
2023-02-16T18:21:27.336Z,22.78
2023-02-16T18:23:53.630Z,22.00
2023-02-16T18:26:20.073Z,20.41
2023-02-16T18:28:46.392Z,18.64
2023-02-16T18:31:12.738Z,17.16
2023-02-16T18:33:39.084Z,16.95
2023-02-16T18:36:05.663Z,17.20
2023-02-16T18:38:32.304Z,17.03
2023-02-16T18:40:58.621Z,16.96
2023-02-16T18:43:24.935Z,17.70
2023-02-16T18:45:51.223Z,18.23
2023-02-16T18:48:17.596Z,19.28
2023-02-16T18:50:43.905Z,18.64
2023-02-16T18:53:10.210Z,19.14
2023-02-16T18:55:36.524Z,18.60
2023-02-16T18:58:02.819Z,19.53
2023-02-16T19:00:29.101Z,21.44
2023-02-16T19:02:55.414Z,23.50
2023-02-16T19:05:21.702Z,23.94
2023-02-16T19:07:47.998Z,23.35
2023-02-16T19:10:14.309Z,21.69
2023-02-16T19:12:40.608Z,22.00
2023-02-16T19:15:06.911Z,21.68
2023-02-16T19:17:33.236Z,22.00
2023-02-16T19:19:59.542Z,23.28
2023-02-16T19:22:25.832Z,22.12
2023-02-16T19:24:52.186Z,22.68
2023-02-16T19:27:18.487Z,22.82
2023-02-16T19:29:44.774Z,22.81
2023-02-16T19:32:11.105Z,23.60
2023-02-16T19:34:37.450Z,23.28
2023-02-16T19:37:03.744Z,22.24
2023-02-16T19:39:30.061Z,21.19
2023-02-16T19:41:56.344Z,21.12
2023-02-16T19:44:22.622Z,20.98
2023-02-16T19:46:48.936Z,21.21
2023-02-16T19:49:15.238Z,20.60
2023-02-16T19:51:41.533Z,19.12
2023-02-16T19:54:07.829Z,18.55
2023-02-16T19:56:34.106Z,19.62
2023-02-16T19:59:00.393Z,21.14
2023-02-16T20:01:26.728Z,21.29
2023-02-16T20:03:53.042Z,21.05
2023-02-16T20:06:19.334Z,20.78
2023-02-16T20:08:45.649Z,20.96
2023-02-16T20:11:11.955Z,20.71
2023-02-16T20:13:38.244Z,21.09
2023-02-16T20:16:04.942Z,21.20
2023-02-16T20:18:31.444Z,21.24
2023-02-16T20:20:57.735Z,19.64
2023-02-16T20:23:24.051Z,20.12
2023-02-16T20:25:50.343Z,20.07
2023-02-16T20:28:16.697Z,19.99
2023-02-16T20:30:43.050Z,19.39
2023-02-16T20:33:09.330Z,23.00
2023-02-16T20:35:35.616Z,23.53
2023-02-16T20:38:01.916Z,21.89
2023-02-16T20:40:28.202Z,20.74
2023-02-16T20:42:54.490Z,21.30
2023-02-16T20:45:20.807Z,21.72
2023-02-16T20:47:47.090Z,23.47
2023-02-16T20:50:13.380Z,23.38
2023-02-16T20:52:39.681Z,21.78
2023-02-16T20:55:05.981Z,19.19
2023-02-16T20:57:32.286Z,19.40
2023-02-16T20:59:58.604Z,18.74
2023-02-16T21:02:24.943Z,16.76
2023-02-16T21:04:51.272Z,17.44
2023-02-16T21:07:17.568Z,17.69
2023-02-16T21:09:43.867Z,17.52
2023-02-16T21:12:10.170Z,16.77
2023-02-16T21:14:36.472Z,16.37
2023-02-16T21:17:02.770Z,17.04
2023-02-16T21:19:29.062Z,17.18
2023-02-16T21:21:55.388Z,15.38
2023-02-16T21:24:21.694Z,15.62
2023-02-16T21:26:47.992Z,14.71
2023-02-16T21:29:14.320Z,15.10
2023-02-16T21:31:40.674Z,13.97
2023-02-16T21:34:06.989Z,13.49
2023-02-16T21:36:33.352Z,12.17
2023-02-16T21:38:59.641Z,13.50
2023-02-16T21:41:26.012Z,13.90
2023-02-16T21:43:52.366Z,14.02
2023-02-16T21:46:18.652Z,12.59
2023-02-16T21:48:44.942Z,12.46
2023-02-16T21:51:11.249Z,11.95
2023-02-16T21:53:37.539Z,12.80
2023-02-16T21:56:05.442Z,13.31
2023-02-16T21:58:31.931Z,13.13
2023-02-16T22:00:58.245Z,12.44
2023-02-16T22:03:24.718Z,12.53
2023-02-16T22:05:51.010Z,13.92
2023-02-16T22:08:17.331Z,13.93
2023-02-16T22:10:43.627Z,14.04
2023-02-16T22:13:09.930Z,14.47
2023-02-16T22:15:36.215Z,14.85
2023-02-16T22:18:02.502Z,15.52
2023-02-16T22:20:28.818Z,14.63
2023-02-16T22:22:55.108Z,14.58
2023-02-16T22:25:21.426Z,15.75
2023-02-16T22:27:47.743Z,16.33
2023-02-16T22:30:14.077Z,16.28
2023-02-16T22:32:40.385Z,15.49
2023-02-16T22:35:06.698Z,15.75
2023-02-16T22:37:32.990Z,16.18
2023-02-16T22:39:59.283Z,17.25
2023-02-16T22:42:25.638Z,16.20
2023-02-16T22:44:51.943Z,16.99
2023-02-16T22:47:18.238Z,17.85
2023-02-16T22:49:44.560Z,17.58
2023-02-16T22:52:10.861Z,17.57
2023-02-16T22:54:37.145Z,17.95
2023-02-16T22:57:03.472Z,18.60
2023-02-16T22:59:29.761Z,16.62
2023-02-16T23:01:56.037Z,16.01
2023-02-16T23:04:22.363Z,15.05
2023-02-16T23:06:48.655Z,15.03
2023-02-16T23:09:14.950Z,14.27
2023-02-16T23:11:41.260Z,13.89
2023-02-16T23:14:07.550Z,13.84
2023-02-16T23:16:33.859Z,14.41
2023-02-16T23:19:00.239Z,14.83
2023-02-16T23:21:26.570Z,14.93
2023-02-16T23:23:52.908Z,15.03
2023-02-16T23:26:19.245Z,15.14
2023-02-16T23:28:45.554Z,15.56
2023-02-16T23:31:11.957Z,16.38
2023-02-16T23:33:38.318Z,17.60
2023-02-16T23:36:04.846Z,16.82
2023-02-16T23:38:31.421Z,15.69
2023-02-16T23:40:57.738Z,16.55
2023-02-16T23:43:24.040Z,15.79
2023-02-16T23:45:50.344Z,15.79
2023-02-16T23:48:16.738Z,15.91
2023-02-16T23:50:43.030Z,16.59
2023-02-16T23:53:09.319Z,16.96
2023-02-16T23:55:35.636Z,16.40
2023-02-16T23:58:01.927Z,16.34
